Time;durP1;ratioP1;P1;durP2;ratioP2;P2;SDS_P1;SDS_P2;PMS_P1;PMS_P2;Temp;Humidity;BMP_temperature;BMP_pressure;BME280_temperature;BME280_humidity;BME280_pressure;Samples;Min_cycle;Max_cycle;Signal;HPM_P1;HPM_P2
2022/04/20 00:01:00;;;;;;;3.17;2.80;;;10.70;73.30;;;;;;5031255;28;20425;-41
2022/04/20 00:03:25;;;;;;;3.30;2.60;;;10.60;72.90;;;;;;5031567;28;20189;-41
2022/04/20 00:05:51;;;;;;;2.87;2.60;;;10.50;73.20;;;;;;5022219;28;20190;-41
2022/04/20 00:08:17;;;;;;;4.40;3.27;;;10.80;73.40;;;;;;5029835;28;20190;-41
2022/04/20 00:10:42;;;;;;;2.63;2.43;;;10.50;74.00;;;;;;5031145;28;20267;-41
2022/04/20 00:13:09;;;;;;;2.97;2.67;;;10.40;74.40;;;;;;5031465;28;20194;-41
2022/04/20 00:15:35;;;;;;;3.93;2.70;;;10.40;75.50;;;;;;5031676;28;20640;-41
2022/04/20 00:18:01;;;;;;;3.03;2.83;;;10.20;75.40;;;;;;5031261;28;20505;-41
2022/04/20 00:20:27;;;;;;;3.77;2.90;;;10.30;76.70;;;;;;5028270;28;20196;-41
2022/04/20 00:22:52;;;;;;;3.90;2.73;;;10.30;77.60;;;;;;5020301;28;20210;-41
2022/04/20 00:25:18;;;;;;;4.10;2.60;;;10.10;77.30;;;;;;5033790;28;20198;-41
2022/04/20 00:27:43;;;;;;;3.70;2.70;;;10.10;78.00;;;;;;5031502;28;20182;-41
2022/04/20 00:30:11;;;;;;;4.13;2.90;;;10.10;78.70;;;;;;5030729;28;20186;-41
2022/04/20 00:32:37;;;;;;;3.93;2.77;;;10.00;79.40;;;;;;5031250;28;20199;-41
2022/04/20 00:35:03;;;;;;;2.50;2.27;;;10.00;79.70;;;;;;5028065;28;20443;-41
2022/04/20 00:37:28;;;;;;;5.90;3.00;;;10.00;80.10;;;;;;5020217;28;20529;-41
2022/04/20 00:39:54;;;;;;;6.20;2.93;;;10.10;80.30;;;;;;5030211;28;20901;-41
2022/04/20 00:42:23;;;;;;;3.27;2.80;;;10.20;80.30;;;;;;5030932;28;20218;-41
2022/04/20 00:44:49;;;;;;;3.87;2.90;;;9.90;81.00;;;;;;5030691;28;20198;-41
2022/04/20 00:47:16;;;;;;;3.37;2.83;;;10.00;81.30;;;;;;5030886;28;20417;-41
2022/04/20 00:49:44;;;;;;;2.50;2.20;;;10.00;81.20;;;;;;5028991;28;20428;-41
2022/04/20 00:52:10;;;;;;;3.67;3.10;;;9.90;83.00;;;;;;5029965;28;20436;-41
2022/04/20 00:54:36;;;;;;;2.57;2.37;;;9.90;82.50;;;;;;5030817;28;20421;-41
2022/04/20 00:57:01;;;;;;;7.00;3.07;;;9.90;82.80;;;;;;5030870;28;20211;-41
2022/04/20 00:59:28;;;;;;;3.97;3.30;;;9.90;83.70;;;;;;5030774;28;20198;-41
2022/04/20 01:01:55;;;;;;;4.40;4.00;;;9.70;84.40;;;;;;5029652;28;20324;-43
2022/04/20 01:04:21;;;;;;;3.80;3.33;;;9.80;85.00;;;;;;5028322;28;20440;-41
2022/04/20 01:06:49;;;;;;;3.90;3.17;;;9.90;86.50;;;;;;5019523;28;20441;-43
2022/04/20 01:09:15;;;;;;;4.03;3.33;;;9.80;86.70;;;;;;5035408;28;20533;-41
2022/04/20 01:11:41;;;;;;;3.70;3.30;;;9.70;88.30;;;;;;5028407;28;20437;-41
2022/04/20 01:14:06;;;;;;;5.30;3.93;;;9.70;89.30;;;;;;5030205;28;20990;-41
2022/04/20 01:16:32;;;;;;;4.43;3.67;;;9.70;90.50;;;;;;5030167;28;20430;-41
2022/04/20 01:18:59;;;;;;;4.80;4.03;;;9.60;90.60;;;;;;5030378;28;20320;-41
2022/04/20 01:21:25;;;;;;;8.20;3.47;;;9.60;90.90;;;;;;5022512;28;20301;-41
2022/04/20 01:23:51;;;;;;;4.30;3.70;;;9.50;91.00;;;;;;5029568;28;20455;-41
2022/04/20 01:26:17;;;;;;;4.43;4.03;;;9.50;91.10;;;;;;5028833;28;20907;-41
2022/04/20 01:28:45;;;;;;;4.17;3.63;;;9.60;91.00;;;;;;5030248;28;20563;-41
2022/04/20 01:31:15;;;;;;;4.80;4.30;;;9.60;90.80;;;;;;5029630;28;20677;-41
2022/04/20 01:33:42;;;;;;;4.40;3.80;;;9.80;90.90;;;;;;5030007;28;20422;-41
2022/04/20 01:36:09;;;;;;;4.70;3.33;;;9.70;90.60;;;;;;5025110;28;20434;-41
2022/04/20 01:38:36;;;;;;;4.93;3.73;;;9.60;91.10;;;;;;5027864;28;20770;-43
2022/04/20 01:41:02;;;;;;;4.03;3.63;;;9.60;91.40;;;;;;5029386;28;20417;-43
2022/04/20 01:43:27;;;;;;;5.00;4.50;;;9.50;91.70;;;;;;5028176;28;20436;-43
2022/04/20 01:45:53;;;;;;;5.30;4.33;;;9.70;91.50;;;;;;5030080;28;20642;-43
2022/04/20 01:48:18;;;;;;;4.47;4.03;;;9.50;91.80;;;;;;5029664;28;20784;-43
2022/04/20 01:53:30;;;;;;;5.10;4.30;;;9.50;91.70;;;;;;5025528;28;20193;-43
2022/04/20 01:55:56;;;;;;;4.53;3.70;;;9.40;91.80;;;;;;5028148;28;20421;-41
2022/04/20 01:58:24;;;;;;;6.00;3.73;;;9.40;92.40;;;;;;5029472;28;20449;-42
2022/04/20 02:00:50;;;;;;;5.07;4.43;;;9.30;92.60;;;;;;5028941;28;20516;-41
2022/04/20 02:03:16;;;;;;;6.50;4.20;;;9.20;92.90;;;;;;5029562;28;20691;-41
2022/04/20 02:05:41;;;;;;;4.73;4.13;;;9.30;93.30;;;;;;5024809;28;20229;-43
2022/04/20 02:08:07;;;;;;;7.47;4.50;;;9.00;94.00;;;;;;5022282;28;20534;-43
2022/04/20 02:10:33;;;;;;;4.33;3.90;;;9.20;94.30;;;;;;5028512;28;20186;-43
2022/04/20 02:12:59;;;;;;;4.33;3.93;;;8.90;93.80;;;;;;5029558;28;20466;-43
2022/04/20 02:15:24;;;;;;;5.30;3.90;;;9.00;94.30;;;;;;5029484;28;20541;-43
2022/04/20 02:17:50;;;;;;;4.90;4.17;;;9.20;94.20;;;;;;5016373;28;20182;-42
2022/04/20 02:20:16;;;;;;;4.40;3.97;;;9.20;94.20;;;;;;5028644;28;20202;-41
2022/04/20 02:22:41;;;;;;;4.80;4.27;;;9.00;94.30;;;;;;5018740;28;20335;-43
2022/04/20 02:25:07;;;;;;;4.77;3.90;;;8.90;94.70;;;;;;5031587;28;20715;-44
2022/04/20 02:27:33;;;;;;;5.73;3.87;;;9.00;95.30;;;;;;5029464;28;20187;-43
2022/04/20 02:30:02;;;;;;;5.23;4.20;;;8.90;95.40;;;;;;5028579;28;20190;-41
2022/04/20 02:32:28;;;;;;;5.33;4.20;;;8.90;95.40;;;;;;5028227;28;20448;-41
2022/04/20 02:34:53;;;;;;;5.93;4.80;;;8.90;95.30;;;;;;5029290;28;20432;-41
2022/04/20 02:37:19;;;;;;;4.20;3.80;;;8.70;95.60;;;;;;5018358;28;20225;-43
2022/04/20 02:39:45;;;;;;;5.40;4.33;;;8.70;95.90;;;;;;5022827;28;20305;-43
2022/04/20 02:42:12;;;;;;;5.23;3.90;;;8.90;95.80;;;;;;5029003;28;20581;-41
2022/04/20 02:44:39;;;;;;;3.90;3.60;;;8.70;96.20;;;;;;5028985;28;20269;-43
2022/04/20 02:47:05;;;;;;;5.13;4.13;;;8.40;96.60;;;;;;5029104;28;20575;-43
2022/04/20 02:49:31;;;;;;;5.70;4.30;;;8.40;97.00;;;;;;5029000;28;20425;-43
2022/04/20 02:51:56;;;;;;;4.47;4.07;;;8.40;97.50;;;;;;5007565;28;21109;-43
2022/04/20 02:54:22;;;;;;;4.90;4.40;;;8.50;98.20;;;;;;5022751;28;20688;-43
2022/04/20 02:56:48;;;;;;;6.77;4.90;;;8.60;98.60;;;;;;5028930;28;20188;-41
2022/04/20 02:59:14;;;;;;;5.20;4.00;;;8.40;98.50;;;;;;5028978;28;20429;-42
2022/04/20 03:01:39;;;;;;;4.43;3.93;;;8.10;98.90;;;;;;5028192;28;20213;-43
2022/04/20 03:04:05;;;;;;;5.20;4.13;;;8.20;99.20;;;;;;5027364;28;20234;-41
2022/04/20 03:06:31;;;;;;;5.03;3.97;;;8.10;99.50;;;;;;5023633;28;20654;-43
2022/04/20 03:08:56;;;;;;;6.90;4.10;;;8.40;99.90;;;;;;5023796;28;20667;-43
2022/04/20 03:11:22;;;;;;;5.40;4.30;;;8.20;99.90;;;;;;5028264;28;20186;-41
2022/04/20 03:13:48;;;;;;;5.60;3.97;;;8.10;99.90;;;;;;5028740;28;20218;-41
2022/04/20 03:16:14;;;;;;;7.97;4.40;;;8.10;99.90;;;;;;5028886;28;20194;-41
2022/04/20 03:18:40;;;;;;;4.63;4.13;;;8.00;99.90;;;;;;5028746;28;20580;-41
2022/04/20 03:21:06;;;;;;;5.87;4.30;;;8.00;99.90;;;;;;5027925;28;20429;-41
2022/04/20 03:23:32;;;;;;;6.00;4.60;;;7.70;99.90;;;;;;5017293;28;20186;-41
2022/04/20 03:25:57;;;;;;;5.63;4.70;;;8.10;99.90;;;;;;5030978;28;20762;-41
2022/04/20 03:28:23;;;;;;;7.33;4.60;;;7.70;99.90;;;;;;5028577;28;20265;-42
2022/04/20 03:30:50;;;;;;;7.10;4.30;;;7.70;99.90;;;;;;5007122;28;20214;-41
2022/04/20 03:33:16;;;;;;;4.93;3.83;;;7.60;99.90;;;;;;5022906;28;20429;-41
2022/04/20 03:35:42;;;;;;;5.03;4.53;;;7.50;99.90;;;;;;5028628;28;20417;-41
2022/04/20 03:38:09;;;;;;;7.23;4.90;;;7.60;99.90;;;;;;5018778;28;20442;-41
2022/04/20 03:40:35;;;;;;;4.93;4.30;;;7.60;99.90;;;;;;5027840;28;20417;-41
2022/04/20 03:43:01;;;;;;;9.17;4.60;;;7.60;99.90;;;;;;5029175;28;20536;-41
2022/04/20 03:45:27;;;;;;;5.40;4.90;;;7.70;99.90;;;;;;5032038;28;20425;-41
2022/04/20 03:47:53;;;;;;;9.00;5.83;;;7.40;99.90;;;;;;5032123;28;20486;-41
2022/04/20 03:50:19;;;;;;;4.47;4.00;;;7.50;99.90;;;;;;5031554;28;20421;-41
2022/04/20 03:52:45;;;;;;;7.13;4.60;;;7.40;99.90;;;;;;5021463;28;20445;-41
2022/04/20 03:55:11;;;;;;;5.23;4.70;;;7.30;99.90;;;;;;5031915;28;20191;-41
2022/04/20 03:57:37;;;;;;;6.77;5.17;;;7.40;99.90;;;;;;5031719;28;20233;-41
2022/04/20 04:00:07;;;;;;;6.00;4.93;;;7.50;99.90;;;;;;5031193;28;20491;-41
2022/04/20 04:02:32;;;;;;;5.83;4.10;;;7.30;99.90;;;;;;5031806;28;20205;-42
2022/04/20 04:04:58;;;;;;;4.83;4.30;;;7.40;99.90;;;;;;5030383;28;20475;-42
2022/04/20 04:07:23;;;;;;;4.67;4.27;;;7.40;99.90;;;;;;5025747;28;20185;-41
2022/04/20 04:09:49;;;;;;;3.93;3.53;;;7.30;99.90;;;;;;5028514;28;20674;-41
2022/04/20 04:12:15;;;;;;;4.53;4.10;;;7.40;99.90;;;;;;5031622;28;20182;-41
2022/04/20 04:14:41;;;;;;;4.70;4.10;;;7.60;99.90;;;;;;5031711;28;20187;-41
2022/04/20 04:17:08;;;;;;;4.47;3.77;;;7.70;99.90;;;;;;5031401;28;20437;-41
2022/04/20 04:19:35;;;;;;;6.50;4.37;;;7.50;99.90;;;;;;5031065;28;20429;-41
2022/04/20 04:22:02;;;;;;;5.50;4.43;;;7.60;99.90;;;;;;5027362;28;20470;-41
2022/04/20 04:24:37;;;;;;;5.40;4.40;;;7.50;99.90;;;;;;5027492;28;20833;-41
2022/04/20 04:27:03;;;;;;;8.40;5.33;;;7.50;99.90;;;;;;5031283;28;20443;-41
2022/04/20 04:29:31;;;;;;;6.17;5.03;;;7.70;99.90;;;;;;5031434;28;20762;-41
2022/04/20 04:31:57;;;;;;;5.17;4.47;;;7.90;99.90;;;;;;5030488;28;20486;-42
2022/04/20 04:34:23;;;;;;;5.63;4.70;;;7.80;99.90;;;;;;5031236;28;21059;-41
2022/04/20 04:36:50;;;;;;;8.70;5.23;;;7.80;99.90;;;;;;5030705;28;20437;-41
2022/04/20 04:39:20;;;;;;;5.37;4.83;;;8.10;99.90;;;;;;5023116;28;20348;-41
2022/04/20 04:41:47;;;;;;;7.20;4.00;;;7.70;99.90;;;;;;5030601;28;20456;-41
2022/04/20 04:44:12;;;;;;;6.93;5.20;;;7.70;99.90;;;;;;5031024;28;20999;-41
2022/04/20 04:49:22;;;;;;;5.10;4.10;;;7.60;99.90;;;;;;5030905;28;20186;-41
2022/04/20 04:51:49;;;;;;;5.63;4.60;;;7.60;99.90;;;;;;5030466;28;20422;-42
2022/04/20 04:54:15;;;;;;;5.60;5.00;;;7.70;99.90;;;;;;5020171;28;20654;-41
2022/04/20 04:56:41;;;;;;;6.67;4.80;;;7.70;99.90;;;;;;5025918;28;20455;-41
2022/04/20 04:59:06;;;;;;;7.10;5.40;;;7.70;99.90;;;;;;5030566;28;20429;-41
2022/04/20 05:01:32;;;;;;;7.83;5.37;;;7.60;99.90;;;;;;5028655;28;20285;-41
2022/04/20 05:03:58;;;;;;;6.07;4.57;;;7.60;99.90;;;;;;5027787;28;20913;-41
2022/04/20 05:06:24;;;;;;;11.93;6.63;;;7.80;99.90;;;;;;5030864;28;20189;-41
2022/04/20 05:08:50;;;;;;;7.20;5.40;;;7.80;99.90;;;;;;5017156;28;20442;-41
2022/04/20 05:11:17;;;;;;;7.17;5.30;;;8.10;99.90;;;;;;5027733;28;20186;-41
2022/04/20 05:13:42;;;;;;;10.13;4.73;;;8.00;99.90;;;;;;5030358;28;20410;-41
2022/04/20 05:16:09;;;;;;;7.60;4.60;;;8.20;99.90;;;;;;5030353;28;20786;-41
2022/04/20 05:18:35;;;;;;;5.50;4.90;;;8.10;99.90;;;;;;5030527;28;20688;-41
2022/04/20 05:21:00;;;;;;;8.03;5.13;;;8.40;99.90;;;;;;5026735;28;20532;-41
2022/04/20 05:23:26;;;;;;;7.33;5.03;;;8.50;99.90;;;;;;5022744;28;20473;-41
2022/04/20 05:25:52;;;;;;;7.93;5.20;;;8.40;99.90;;;;;;5032698;28;20190;-41
2022/04/20 05:28:18;;;;;;;9.30;5.13;;;8.50;99.90;;;;;;5022630;28;20433;-41
2022/04/20 05:30:43;;;;;;;10.43;5.70;;;8.40;99.90;;;;;;5028867;28;20712;-41
2022/04/20 05:33:09;;;;;;;7.23;5.87;;;8.40;99.90;;;;;;5025325;28;20210;-41
2022/04/20 05:35:35;;;;;;;7.10;5.00;;;8.40;99.90;;;;;;5027816;28;20190;-41
2022/04/20 05:43:29;;;;;;;6.47;5.00;;;8.70;99.90;;;;;;5027448;28;20432;-41
2022/04/20 05:45:54;;;;;;;7.40;5.63;;;8.90;99.70;;;;;;5030010;28;20948;-41
2022/04/20 05:48:20;;;;;;;6.90;5.37;;;8.90;99.50;;;;;;5029570;28;20199;-41
2022/04/20 05:50:46;;;;;;;5.33;4.73;;;9.10;98.90;;;;;;5039950;28;20197;-41
2022/04/20 05:53:12;;;;;;;5.50;4.70;;;9.40;98.20;;;;;;5035284;28;20190;-41
2022/04/20 05:55:38;;;;;;;7.10;5.00;;;9.70;97.10;;;;;;5024619;28;20213;-41
2022/04/20 05:58:03;;;;;;;6.20;4.70;;;10.20;96.30;;;;;;5029501;28;20460;-41
2022/04/20 06:00:30;;;;;;;5.80;5.10;;;10.20;95.80;;;;;;5029315;28;20649;-41
2022/04/20 06:02:57;;;;;;;5.33;4.77;;;10.50;95.60;;;;;;5029043;28;20604;-41
2022/04/20 06:05:23;;;;;;;8.10;5.33;;;10.50;95.10;;;;;;5030255;28;20436;-41
2022/04/20 06:07:49;;;;;;;6.40;4.87;;;10.70;94.60;;;;;;5025351;28;20544;-41
2022/04/20 06:10:14;;;;;;;7.60;5.37;;;10.90;94.40;;;;;;5028210;28;20209;-41
2022/04/20 06:12:41;;;;;;;12.23;5.97;;;10.90;94.60;;;;;;5025345;28;20468;-41
2022/04/20 06:15:08;;;;;;;8.33;5.70;;;11.20;94.20;;;;;;5029028;28;20186;-41
2022/04/20 06:17:34;;;;;;;7.63;5.03;;;11.30;94.00;;;;;;5028315;28;20421;-41
2022/04/20 06:20:00;;;;;;;7.27;5.57;;;11.50;93.90;;;;;;5028751;28;20483;-41
2022/04/20 06:22:26;;;;;;;8.70;5.53;;;11.60;93.00;;;;;;5029316;28;20519;-41
2022/04/20 06:24:52;;;;;;;5.63;4.90;;;11.80;93.00;;;;;;5021202;28;20999;-41
2022/04/20 06:27:18;;;;;;;6.73;4.70;;;12.00;92.40;;;;;;5029329;28;20454;-41
2022/04/20 06:29:44;;;;;;;6.83;5.07;;;12.10;92.30;;;;;;5028771;28;20187;-41
2022/04/20 06:32:10;;;;;;;6.70;4.70;;;12.30;92.00;;;;;;5029143;28;20240;-41
2022/04/20 06:34:35;;;;;;;6.20;4.47;;;12.50;91.70;;;;;;5029147;28;20927;-41
2022/04/20 06:37:01;;;;;;;4.90;4.33;;;12.70;90.90;;;;;;5028967;28;20281;-41
2022/04/20 06:39:28;;;;;;;6.30;4.10;;;12.60;90.70;;;;;;5019924;28;20182;-42
2022/04/20 06:41:53;;;;;;;5.50;4.40;;;12.70;90.10;;;;;;5028430;28;20229;-41
2022/04/20 06:44:19;;;;;;;3.90;3.60;;;12.90;89.80;;;;;;5029175;28;20915;-41
2022/04/20 06:46:45;;;;;;;8.70;4.10;;;13.00;89.90;;;;;;5027575;28;20199;-41
2022/04/20 06:49:11;;;;;;;6.33;4.80;;;13.00;88.90;;;;;;5027848;28;20554;-41
2022/04/20 06:59:53;;;;;;;5.43;4.40;;;13.50;85.80;;;;;;5026669;28;20429;-42
2022/04/20 07:02:21;;;;;;;5.03;4.53;;;13.70;85.30;;;;;;5028951;28;20468;-41
2022/04/20 07:04:47;;;;;;;5.00;4.33;;;13.60;88.50;;;;;;5028245;28;20440;-41
2022/04/20 07:07:13;;;;;;;4.87;4.20;;;13.60;86.10;;;;;;5026406;28;20421;-41
2022/04/20 07:09:39;;;;;;;5.10;4.13;;;13.70;87.20;;;;;;5018680;28;21047;-41
2022/04/20 07:12:04;;;;;;;6.47;4.63;;;13.80;86.00;;;;;;5026079;28;20567;-41
2022/04/20 07:14:30;;;;;;;5.40;4.60;;;13.90;86.00;;;;;;5027752;28;20257;-41
2022/04/20 07:16:56;;;;;;;6.23;4.53;;;14.00;85.30;;;;;;5027214;28;20445;-41
2022/04/20 07:19:22;;;;;;;4.70;4.30;;;14.10;84.70;;;;;;5031965;28;20198;-41
2022/04/20 07:21:47;;;;;;;5.43;4.30;;;14.30;83.10;;;;;;5030507;28;20305;-42
2022/04/20 07:24:13;;;;;;;4.60;4.17;;;14.20;83.00;;;;;;5025391;28;20523;-41
2022/04/20 07:26:39;;;;;;;4.50;4.10;;;14.30;82.60;;;;;;5031958;28;20190;-42
2022/04/20 07:29:04;;;;;;;5.30;4.80;;;14.20;83.50;;;;;;5032772;28;20197;-42
2022/04/20 07:31:30;;;;;;;5.50;4.50;;;14.10;84.70;;;;;;5031225;28;20765;-42
2022/04/20 07:33:55;;;;;;;6.70;4.83;;;14.00;84.80;;;;;;5032547;28;20545;-42
2022/04/20 07:36:21;;;;;;;7.20;5.00;;;13.80;86.50;;;;;;5032593;28;20209;-42
2022/04/20 07:38:48;;;;;;;5.10;4.60;;;13.70;87.40;;;;;;5026209;28;20366;-41
2022/04/20 07:41:15;;;;;;;5.77;5.00;;;13.70;87.00;;;;;;5027016;28;20791;-41
2022/04/20 07:43:40;;;;;;;4.93;4.40;;;13.70;87.00;;;;;;5032063;28;20490;-42
2022/04/20 07:46:06;;;;;;;4.67;4.20;;;13.60;85.50;;;;;;5032219;28;20496;-41
2022/04/20 07:48:32;;;;;;;4.73;3.83;;;13.60;88.00;;;;;;5031951;28;20189;-41
2022/04/20 07:51:00;;;;;;;4.50;4.10;;;13.60;86.90;;;;;;5031157;28;20195;-41
2022/04/20 07:53:26;;;;;;;5.00;4.00;;;13.60;86.50;;;;;;5033571;28;20229;-41
2022/04/20 07:55:52;;;;;;;5.80;3.97;;;13.60;87.60;;;;;;5026819;28;20476;-41
2022/04/20 07:58:18;;;;;;;5.53;4.20;;;13.60;87.50;;;;;;5031585;28;20222;-42
2022/04/20 08:00:44;;;;;;;4.20;3.80;;;13.70;83.10;;;;;;5030986;28;20204;-41
2022/04/20 08:03:11;;;;;;;5.07;3.80;;;13.70;82.80;;;;;;5029692;28;20252;-41
2022/04/20 08:05:38;;;;;;;4.20;3.83;;;13.90;80.40;;;;;;5029762;28;20982;-42
2022/04/20 08:08:05;;;;;;;5.23;3.83;;;13.90;82.60;;;;;;5031215;28;20429;-42
2022/04/20 08:10:31;;;;;;;5.10;4.00;;;13.80;79.90;;;;;;5020672;28;20436;-41
2022/04/20 08:12:56;;;;;;;5.10;3.90;;;13.80;80.60;;;;;;5029535;28;20468;-41
2022/04/20 08:15:22;;;;;;;4.60;3.67;;;13.80;82.30;;;;;;5031193;28;20461;-41
2022/04/20 08:17:48;;;;;;;7.20;3.93;;;13.80;82.40;;;;;;5030831;28;20606;-41
2022/04/20 08:20:13;;;;;;;5.90;4.20;;;13.70;81.70;;;;;;5030333;28;20194;-42
2022/04/20 08:22:41;;;;;;;3.83;3.50;;;13.70;80.70;;;;;;5030735;28;20697;-41
2022/04/20 08:25:11;;;;;;;4.13;3.40;;;13.70;81.50;;;;;;5018429;28;20203;-42
2022/04/20 08:27:38;;;;;;;3.97;3.57;;;13.70;82.90;;;;;;5028516;28;20425;-42
2022/04/20 08:30:05;;;;;;;5.27;3.60;;;13.70;83.60;;;;;;5030236;28;20512;-41
2022/04/20 08:32:32;;;;;;;4.43;4.03;;;13.60;83.70;;;;;;5030182;28;20866;-42
2022/04/20 08:34:57;;;;;;;5.00;3.47;;;13.60;84.40;;;;;;5030834;28;20437;-41
2022/04/20 08:37:23;;;;;;;4.80;3.47;;;13.60;81.80;;;;;;5030656;28;20433;-41
2022/04/20 08:39:49;;;;;;;3.73;3.23;;;13.70;81.70;;;;;;5019623;28;20234;-41
2022/04/20 08:42:18;;;;;;;3.40;3.10;;;13.80;77.40;;;;;;5030116;28;21461;-41
2022/04/20 08:44:49;;;;;;;3.90;3.50;;;13.90;78.80;;;;;;5029156;28;20256;-41
2022/04/20 08:47:19;;;;;;;5.00;4.00;;;14.00;79.10;;;;;;5030078;28;20974;-41
2022/04/20 08:49:46;;;;;;;3.80;2.50;;;14.10;76.80;;;;;;5029858;28;20428;-42
2022/04/20 08:54:57;;;;;;;4.30;2.93;;;14.10;77.40;;;;;;5022186;28;20868;-41
2022/04/20 08:57:24;;;;;;;4.70;3.20;;;14.20;77.30;;;;;;5030152;28;20490;-41
2022/04/20 08:59:51;;;;;;;5.07;2.33;;;14.30;75.80;;;;;;5029444;28;20197;-42
2022/04/20 09:02:21;;;;;;;3.50;2.40;;;14.50;73.70;;;;;;5029676;28;20460;-41
2022/04/20 09:04:47;;;;;;;4.00;3.00;;;14.50;72.40;;;;;;5015412;28;20421;-41
2022/04/20 09:07:15;;;;;;;3.67;3.37;;;14.50;73.50;;;;;;5029432;28;20429;-42
2022/04/20 09:09:41;;;;;;;4.77;3.90;;;14.50;73.90;;;;;;5020222;28;20507;-42
2022/04/20 09:12:14;;;;;;;6.60;3.50;;;14.70;75.80;;;;;;5027435;28;20433;-42
2022/04/20 09:14:43;;;;;;;4.60;3.50;;;14.70;75.40;;;;;;5029974;28;20429;-41
2022/04/20 09:17:15;;;;;;;4.83;3.33;;;14.80;74.70;;;;;;5029610;28;20968;-41
2022/04/20 09:19:42;;;;;;;4.27;3.33;;;14.90;73.60;;;;;;5027659;28;20448;-41
2022/04/20 09:22:28;;;;;;;4.07;3.50;;;14.90;72.60;;;;;;5029749;28;20885;-41
2022/04/20 09:25:05;;;;;;;3.87;3.50;;;15.10;73.60;;;;;;5021332;28;20848;-41
2022/04/20 09:27:32;;;;;;;4.70;4.20;;;15.20;76.00;;;;;;5029838;28;20443;-41
2022/04/20 09:29:58;;;;;;;7.00;3.90;;;15.40;75.50;;;;;;5029155;28;20425;-41
2022/04/20 09:32:35;;;;;;;4.40;4.00;;;15.50;73.30;;;;;;5027752;28;20447;-42
2022/04/20 09:35:06;;;;;;;3.60;3.30;;;15.70;72.90;;;;;;5029460;28;21092;-41
2022/04/20 09:37:32;;;;;;;5.10;3.50;;;15.80;71.50;;;;;;5028315;28;20906;-42
2022/04/20 09:39:59;;;;;;;6.13;3.50;;;15.90;72.90;;;;;;5020627;28;20454;-41
2022/04/20 09:42:25;;;;;;;5.93;3.50;;;16.10;72.00;;;;;;5021657;28;20548;-41
2022/04/20 09:44:54;;;;;;;4.80;3.57;;;16.20;72.00;;;;;;5028989;28;20532;-41
2022/04/20 09:50:10;;;;;;;5.57;2.37;;;16.40;66.60;;;;;;5028680;28;20425;-41
2022/04/20 09:52:39;;;;;;;2.50;2.30;;;16.50;68.20;;;;;;5029199;28;20800;-41
2022/04/20 09:55:06;;;;;;;4.83;2.83;;;16.60;68.10;;;;;;5020964;28;20511;-41
2022/04/20 09:57:33;;;;;;;2.90;2.70;;;16.70;65.90;;;;;;5023418;28;20433;-41
2022/04/20 10:00:14;;;;;;;2.80;2.50;;;16.80;64.80;;;;;;5026439;28;20440;-42
2022/04/20 10:02:53;;;;;;;2.67;2.47;;;16.80;64.20;;;;;;5028518;28;20475;-42
2022/04/20 10:05:21;;;;;;;2.90;2.70;;;16.90;65.50;;;;;;5028125;28;20424;-41
2022/04/20 10:07:47;;;;;;;4.20;2.90;;;16.80;63.60;;;;;;5028648;28;20437;-41
2022/04/20 10:10:12;;;;;;;4.90;3.10;;;16.80;64.70;;;;;;5019878;28;20441;-42
2022/04/20 10:12:41;;;;;;;4.33;3.07;;;16.80;63.20;;;;;;5025949;28;20226;-41
2022/04/20 10:17:56;;;;;;;3.83;2.90;;;17.00;63.20;;;;;;5027445;28;20436;-42
2022/04/20 10:20:26;;;;;;;4.30;2.80;;;17.10;60.70;;;;;;5027966;28;20448;-42
2022/04/20 10:22:54;;;;;;;3.17;2.87;;;17.10;60.90;;;;;;5028513;28;20472;-41
2022/04/20 10:25:20;;;;;;;3.10;2.80;;;17.10;62.70;;;;;;5030427;28;20443;-41
2022/04/20 10:28:03;;;;;;;3.23;2.93;;;17.20;62.80;;;;;;5024889;28;20432;-41
2022/04/20 10:30:47;;;;;;;3.07;2.87;;;17.20;60.50;;;;;;5025286;28;20469;-42
2022/04/20 10:33:23;;;;;;;3.87;3.10;;;17.30;59.90;;;;;;5028621;28;20827;-41
2022/04/20 10:36:14;;;;;;;4.27;3.00;;;17.30;63.40;;;;;;5044103;28;20436;-41
2022/04/20 10:38:42;;;;;;;3.27;2.97;;;17.20;59.60;;;;;;5028295;28;20440;-42
2022/04/20 10:41:18;;;;;;;5.53;2.90;;;17.30;60.30;;;;;;5018749;28;20449;-42
2022/04/20 10:43:45;;;;;;;3.50;3.20;;;17.30;59.60;;;;;;5026649;28;20429;-41
2022/04/20 10:46:19;;;;;;;4.60;2.90;;;17.30;61.80;;;;;;5028122;28;20422;-42
2022/04/20 10:49:02;;;;;;;4.70;3.07;;;17.30;62.20;;;;;;5028559;28;20424;-41
2022/04/20 10:51:32;;;;;;;4.03;3.00;;;17.30;61.00;;;;;;5027070;28;20440;-42
2022/04/20 10:54:23;;;;;;;4.90;3.20;;;17.50;61.90;;;;;;5030658;28;20925;-41
2022/04/20 10:57:14;;;;;;;4.17;3.07;;;17.50;61.80;;;;;;5019817;28;20462;-41
2022/04/20 10:59:41;;;;;;;5.70;3.00;;;17.60;62.90;;;;;;5028941;28;20436;-41
2022/04/20 11:02:09;;;;;;;4.90;2.93;;;17.60;62.20;;;;;;5032063;28;20476;-41
2022/04/20 11:04:50;;;;;;;3.53;3.20;;;17.80;60.00;;;;;;5036374;28;20439;-42
2022/04/20 11:07:20;;;;;;;4.60;2.80;;;17.80;62.10;;;;;;5052111;28;20484;-41
2022/04/20 11:09:52;;;;;;;3.77;3.37;;;18.00;59.60;;;;;;5046196;28;20768;-42
2022/04/20 11:21:03;;;;;;;2.90;2.70;;;17.90;57.40;;;;;;5031523;28;20432;-41
2022/04/20 11:23:55;;;;;;;3.07;2.80;;;17.80;56.70;;;;;;5031459;28;20464;-42
2022/04/20 11:26:41;;;;;;;3.73;3.40;;;17.80;58.60;;;;;;5029911;28;20441;-41
2022/04/20 11:29:15;;;;;;;4.23;2.87;;;17.80;58.90;;;;;;5030833;28;20428;-41
2022/04/20 11:31:44;;;;;;;3.63;3.23;;;17.80;57.70;;;;;;5033063;28;20955;-41
2022/04/20 11:34:11;;;;;;;2.73;2.53;;;17.80;58.40;;;;;;5031926;28;20433;-41
2022/04/20 11:36:42;;;;;;;5.83;3.00;;;17.80;57.60;;;;;;5031331;28;20440;-42
2022/04/20 11:39:11;;;;;;;4.50;3.40;;;17.70;56.90;;;;;;5031894;28;20506;-41
2022/04/20 11:41:42;;;;;;;3.27;2.97;;;17.60;57.40;;;;;;5021476;28;20480;-41
2022/04/20 11:44:42;;;;;;;3.70;3.40;;;17.60;56.70;;;;;;5031272;28;20437;-41
2022/04/20 11:47:10;;;;;;;3.53;3.23;;;17.70;60.40;;;;;;5022211;28;21119;-42
2022/04/20 11:49:40;;;;;;;3.27;2.97;;;17.90;58.60;;;;;;5031083;28;20483;-41
2022/04/20 11:52:09;;;;;;;4.80;3.30;;;18.00;59.10;;;;;;5031395;28;20436;-41
2022/04/20 11:54:39;;;;;;;3.90;3.03;;;18.20;60.10;;;;;;5031532;28;20436;-41
2022/04/20 11:57:09;;;;;;;4.10;3.20;;;18.30;58.70;;;;;;5021525;28;20459;-41
2022/04/20 11:59:45;;;;;;;3.60;3.30;;;18.30;59.60;;;;;;5030552;28;20429;-41
2022/04/20 12:02:13;;;;;;;5.23;3.37;;;18.40;58.80;;;;;;5030886;28;21026;-41
2022/04/20 12:04:39;;;;;;;3.13;2.80;;;18.30;58.00;;;;;;5041375;28;20452;-41
2022/04/20 12:07:07;;;;;;;3.80;3.50;;;18.30;58.40;;;;;;5050492;28;20420;-42
2022/04/20 12:09:36;;;;;;;4.53;3.30;;;18.30;56.90;;;;;;5050192;28;20424;-41
2022/04/20 12:12:10;;;;;;;3.10;2.80;;;18.20;57.90;;;;;;5019274;28;20456;-42
2022/04/20 12:14:38;;;;;;;2.83;2.63;;;18.10;55.80;;;;;;5025129;28;20436;-41
2022/04/20 12:17:22;;;;;;;7.07;3.47;;;18.10;56.50;;;;;;5030879;28;20464;-41
2022/04/20 12:19:49;;;;;;;5.23;3.57;;;18.10;58.10;;;;;;5030380;28;20869;-41
2022/04/20 12:22:17;;;;;;;3.60;3.30;;;18.20;59.90;;;;;;5030475;28;21121;-42
2022/04/20 12:24:44;;;;;;;5.57;3.10;;;18.20;57.50;;;;;;5040658;28;20432;-42
2022/04/20 12:27:21;;;;;;;3.50;3.20;;;18.10;59.00;;;;;;5017766;28;20444;-42
2022/04/20 12:29:58;;;;;;;3.50;3.10;;;18.10;58.90;;;;;;5028695;28;20791;-41
2022/04/20 12:32:32;;;;;;;4.20;3.30;;;18.10;57.70;;;;;;5030600;28;20944;-41
2022/04/20 12:35:01;;;;;;;3.17;2.87;;;18.10;56.50;;;;;;5030820;28;20428;-41
2022/04/20 12:37:29;;;;;;;3.57;3.27;;;18.10;56.80;;;;;;5030303;28;20433;-41
2022/04/20 12:39:55;;;;;;;4.03;2.33;;;18.00;57.50;;;;;;5030083;28;20475;-42
2022/04/20 12:42:21;;;;;;;3.63;3.00;;;18.10;58.50;;;;;;5020492;28;20488;-42
2022/04/20 12:44:51;;;;;;;3.27;2.97;;;18.10;57.80;;;;;;5030110;28;20440;-42
2022/04/20 12:47:17;;;;;;;3.50;3.10;;;18.20;56.90;;;;;;5030617;28;20421;-42
2022/04/20 12:49:45;;;;;;;3.50;3.20;;;18.30;56.60;;;;;;5029895;28;20495;-42
2022/04/20 12:52:14;;;;;;;3.63;3.27;;;18.30;58.20;;;;;;5029761;28;20191;-41
2022/04/20 12:54:51;;;;;;;4.40;3.63;;;18.30;57.70;;;;;;5030267;28;20520;-42
2022/04/20 13:03:05;;;;;;;4.63;4.00;;;18.30;59.40;;;;;;5029685;28;20531;-42
2022/04/20 13:05:38;;;;;;;3.90;3.60;;;18.30;62.70;;;;;;5027867;28;21000;-42
2022/04/20 13:08:05;;;;;;;3.30;3.00;;;18.30;60.20;;;;;;5030195;28;20425;-42
2022/04/20 13:10:33;;;;;;;3.43;3.10;;;18.40;59.10;;;;;;5026906;28;20433;-42
2022/04/20 13:12:59;;;;;;;3.93;3.53;;;18.40;57.80;;;;;;5023356;28;20461;-42
2022/04/20 13:15:29;;;;;;;3.87;3.50;;;18.40;58.20;;;;;;5029163;28;20472;-41
2022/04/20 13:17:57;;;;;;;3.97;3.57;;;18.40;59.70;;;;;;5030195;28;20197;-42
2022/04/20 13:20:26;;;;;;;4.13;3.63;;;18.50;60.10;;;;;;5028993;28;20440;-41
2022/04/20 13:22:52;;;;;;;4.03;3.70;;;18.40;58.40;;;;;;5029653;28;20935;-42
2022/04/20 13:28:03;;;;;;;5.03;3.80;;;18.30;58.30;;;;;;5021203;28;20194;-41
2022/04/20 13:30:36;;;;;;;4.73;4.13;;;18.30;62.00;;;;;;5029554;28;21279;-41
2022/04/20 13:33:21;;;;;;;5.60;5.10;;;18.40;61.50;;;;;;5030416;28;20432;-41
2022/04/20 13:35:49;;;;;;;3.93;3.60;;;18.40;61.10;;;;;;5030154;28;20966;-41
2022/04/20 13:38:18;;;;;;;3.33;3.03;;;18.50;59.30;;;;;;5030141;28;20784;-41